^^
Meteo Knjazevac Station Historical Data
Daily Summary for August 14, 2022 Units:  English    Metric   Both
Daily Weekly Monthly Yearly Custom
  High: Low: Average:
Temperature: 67.3 °F 64.3 °F 65.5 °F
Dew Point: 66 °F 64 °F 64.9 °F
Humidity: 99% 95% 98%
Wind Speed: 3.2mph 0mph 1.6mph
Wind Gust: 4mph - -
Wind- - SW
Pressure: 29.92 in 29.90 in -
Precipitation: 0.26 in    
Historical Graphs
 
 
Tabular Data for August 14, 2022
Time Temperature Dew Point Pressure Wind Wind Speed Wind Gust Humidity Rainfall Rate (Hourly) solar Conditions
00:04 67.3 °F 65.8 °F 29.91 in West 1.3 mph 1.1 mph 95% 0.00 in 0 W/m2
00:09 67.3 °F 66 °F 29.91 in WNW 1.6 mph 1.6 mph 95.6% 0.00 in 0 W/m2
00:14 67.1 °F 65.8 °F 29.92 in West 1.8 mph 2 mph 96% 0.00 in 0 W/m2
00:19 66.9 °F 65.7 °F 29.92 in West 1.1 mph 2 mph 96% 0.00 in 0 W/m2
00:24 66.9 °F 65.7 °F 29.92 in NNW 1.9 mph 2 mph 96% 0.00 in 0 W/m2
00:29 66.9 °F 65.7 °F 29.91 in NNW 1.1 mph 2 mph 96% 0.00 in 0 W/m2
00:34 66.9 °F 65.7 °F 29.92 in NNW 2.2 mph 1.6 mph 96% 0.00 in 0 W/m2
00:39 66.9 °F 65.7 °F 29.91 in North 0.6 mph 3 mph 96% 0.00 in 0 W/m2
00:44 66.9 °F 65.7 °F 29.91 in North 1.8 mph 2 mph 96% 0.00 in 0 W/m2
00:49 66.9 °F 65.7 °F 29.91 in NNW 2.1 mph 2 mph 96% 0.00 in 0 W/m2
00:54 66.8 °F 65.6 °F 29.91 in NW 0.3 mph 2 mph 95.9% 0.00 in 0 W/m2
00:59 66.7 °F 65.3 °F 29.91 in Calm     95% 0.00 in 0 W/m2
01:04 66.7 °F 65.3 °F 29.91 in SW 0.4 mph   95% 0.00 in 0 W/m2
01:09 66.7 °F 65.3 °F 29.91 in SW 1 mph 1 mph 95% 0.00 in 0 W/m2
01:14 66.7 °F 65.4 °F 29.91 in West 1.1 mph 2 mph 95.4% 0.00 in 0 W/m2
01:18 66.6 °F 65.6 °F 29.91 in NW 1.9 mph 2 mph 96.7% 0.00 in 0 W/m2
01:24 66.5 °F 65.5 °F 29.91 in North 0.6 mph 2 mph 96.7% 0.00 in 0 W/m2
01:29 66.4 °F 65.2 °F 29.91 in North 1.1 mph 0.4 mph 96% 0.00 in 0 W/m2
01:34 66.3 °F 65.4 °F 29.91 in NNE 1 mph 2 mph 96.8% 0.00 in 0 W/m2
01:39 66.2 °F 65.6 °F 29.91 in ESE 1.8 mph 1.8 mph 98% 0.00 in 0 W/m2
01:44 66 °F 65.6 °F 29.91 in SSE 2.3 mph 1.8 mph 98.6% 0.01 in 0 W/m2
01:49 66 °F 65.7 °F 29.91 in SSW 1.8 mph 2 mph 99% 0.01 in 0 W/m2
01:54 65.8 °F 65.6 °F 29.91 in West 3.2 mph 1.8 mph 99% 0.01 in 0 W/m2
01:58 65.8 °F 65.6 °F 29.91 in West 1.7 mph 3 mph 99% 0.01 in 0 W/m2
02:04 65.8 °F 65.5 °F 29.91 in West 2.1 mph 2 mph 99% 0.01 in 0 W/m2
02:09 65.7 °F 65.4 °F 29.91 in SW 2.2 mph 2 mph 99% 0.01 in 0 W/m2
02:14 65.5 °F 65.2 °F 29.91 in South 1.5 mph 2 mph 99% 0.01 in 0 W/m2
02:19 65.5 °F 65.2 °F 29.91 in Calm   2 mph 99% 0.01 in 0 W/m2
02:24 65.4 °F 65.1 °F 29.91 in SSE 0.1 mph   99% 0.01 in 0 W/m2
02:29 65.3 °F 65 °F 29.90 in SE 2.2 mph 1.6 mph 99% 0.01 in 0 W/m2
02:34 65.3 °F 65 °F 29.91 in NE 0.6 mph 2 mph 99% 0.01 in 0 W/m2
02:39 65.3 °F 65 °F 29.91 in North 0.8 mph 2 mph 99% 0.01 in 0 W/m2
02:44 65.3 °F 65 °F 29.90 in NNW 1.9 mph 2 mph 99% 0.01 in 0 W/m2
02:49 65.1 °F 64.8 °F 29.90 in WSW 2.2 mph 2 mph 99% 0.01 in 0 W/m2
02:54 65.1 °F 64.8 °F 29.90 in West 2.2 mph 2 mph 99% 0.01 in 0 W/m2
02:59 64.9 °F 64.7 °F 29.90 in WNW 2.8 mph 2.7 mph 99% 0.01 in 0 W/m2
03:04 64.9 °F 64.7 °F 29.90 in WNW 2.9 mph 4 mph 99% 0.01 in 0 W/m2
03:09 64.9 °F 64.6 °F 29.90 in WNW 2.3 mph 3 mph 99% 0.01 in 0 W/m2
03:14 64.8 °F 64.6 °F 29.90 in WNW 2 mph 2 mph 99% 0.01 in 0 W/m2
03:19 64.9 °F 64.6 °F 29.90 in NW 1.6 mph 2 mph 99% 0.01 in 0 W/m2
03:24 64.8 °F 64.5 °F 29.90 in NW 2.1 mph 2 mph 99% 0.01 in 0 W/m2
03:29 64.8 °F 64.6 °F 29.90 in West 2 mph 2 mph 99% 0.01 in 0 W/m2
03:34 64.8 °F 64.5 °F 29.90 in WSW 1.7 mph 2 mph 99% 0.00 in 0 W/m2
03:38 64.8 °F 64.5 °F 29.90 in SSW 2.1 mph 2 mph 99% 0.00 in 0 W/m2
03:44 64.8 °F 64.5 °F 29.90 in SE 2 mph 2 mph 99% 0.00 in 0 W/m2
03:49 64.8 °F 64.5 °F 29.90 in SW 2.3 mph 2 mph 99% 0.00 in 0 W/m2
03:54 64.7 °F 64.3 °F 29.90 in SW 2.1 mph 1.8 mph 99% 0.00 in 0 W/m2
03:59 64.6 °F 64.3 °F 29.90 in WSW 1.8 mph 2 mph 99% 0.00 in 0 W/m2
04:04 64.6 °F 64.3 °F 29.90 in WNW 1.2 mph 2 mph 99% 0.00 in 0 W/m2
04:09 64.6 °F 64.3 °F 29.90 in West 1.6 mph 2 mph 99% 0.00 in 0 W/m2
04:14 64.6 °F 64.3 °F 29.90 in SSW 1.2 mph 0.2 mph 99% 0.00 in 0 W/m2
04:19 64.6 °F 64.3 °F 29.90 in SSW 2 mph 2 mph 99% 0.00 in 0 W/m2
04:24 64.6 °F 64.3 °F 29.90 in West 1.3 mph 2 mph 99% 0.00 in 0 W/m2
04:29 64.6 °F 64.3 °F 29.90 in NW 1 mph 2 mph 99% 0.00 in 0 W/m2
04:34 64.6 °F 64.3 °F 29.90 in NNE 1.1 mph 2 mph 99% 0.00 in 0 W/m2
04:39 64.6 °F 64.3 °F 29.90 in ENE 1.2 mph 1 mph 99% 0.00 in 0 W/m2
04:44 64.6 °F 64.3 °F 29.90 in East 2 mph 2 mph 99% 0.01 in 0 W/m2
04:49 64.6 °F 64.3 °F 29.90 in ENE 1.4 mph 2 mph 99% 0.02 in 0 W/m2
04:53 64.6 °F 64.3 °F 29.90 in NNW 2.6 mph 2.2 mph 99% 0.04 in 0 W/m2
04:59 64.6 °F 64.3 °F 29.90 in SW 2.5 mph 3 mph 99% 0.10 in 0 W/m2
05:04 64.6 °F 64.3 °F 29.90 in SW 2 mph 3 mph 99% 0.16 in 0 W/m2
05:09 64.6 °F 64.3 °F 29.90 in North 0.4 mph 2 mph 99% 0.21 in 0 W/m2
05:14 64.4 °F 64.1 °F 29.90 in NNE 1.9 mph 1.1 mph 99% 0.22 in 0 W/m2
05:19 64.4 °F 64.1 °F 29.90 in ENE 0.8 mph 2 mph 99% 0.23 in 0 W/m2
05:24 64.3 °F 64 °F 29.90 in Calm   1 mph 99% 0.25 in 0 W/m2
Knjazevac, Serbia
Compliments of Weather Underground - 2 mb